Time;durP1;ratioP1;P1;durP2;ratioP2;P2;SDS_P1;SDS_P2;PMS_P1;PMS_P2;Temp;Humidity;BMP_temperature;BMP_pressure;BME280_temperature;BME280_humidity;BME280_pressure;Samples;Min_cycle;Max_cycle;Signal;HPM_P1;HPM_P2
2023/10/31 00:01:46;;;;;;;1.75;1.10;;;;;;;;;;5119456;28;20427;-74
2023/10/31 00:04:12;;;;;;;1.88;0.90;;;;;;;;;;5119170;28;20024;-74
2023/10/31 00:06:38;;;;;;;3.42;0.95;;;;;;;;;;5119293;28;20060;-74
2023/10/31 00:09:04;;;;;;;1.10;0.90;;;;;;;;;;5100896;28;20032;-74
2023/10/31 00:11:30;;;;;;;2.38;0.93;;;;;;;;;;5119093;28;20019;-74
2023/10/31 00:13:56;;;;;;;2.80;0.88;;;;;;;;;;5100745;28;20041;-74
2023/10/31 00:16:22;;;;;;;2.35;1.05;;;;;;;;;;5119087;28;20051;-74
2023/10/31 00:18:48;;;;;;;1.85;0.90;;;;;;;;;;5118935;28;20027;-74
2023/10/31 00:21:14;;;;;;;2.72;1.00;;;;;;;;;;5118517;28;20491;-74
2023/10/31 00:23:47;;;;;;;2.75;0.90;;;;;;;;;;5119110;28;20077;-74
2023/10/31 00:26:13;;;;;;;4.28;1.00;;;;;;;;;;5100304;28;20019;-74
2023/10/31 00:28:39;;;;;;;1.63;1.00;;;;;;;;;;5118912;28;20106;-75
2023/10/31 00:31:06;;;;;;;3.30;1.10;;;;;;;;;;5118893;28;20032;-74
2023/10/31 00:33:32;;;;;;;1.73;0.90;;;;;;;;;;5118696;28;20031;-75
2023/10/31 00:35:58;;;;;;;1.83;0.82;;;;;;;;;;5118720;28;20468;-74
2023/10/31 00:38:24;;;;;;;3.25;1.00;;;;;;;;;;5118664;28;20114;-74
2023/10/31 00:40:50;;;;;;;1.67;0.90;;;;;;;;;;5118073;28;20485;-75
2023/10/31 00:43:16;;;;;;;2.70;1.00;;;;;;;;;;5118455;28;20035;-72
2023/10/31 00:45:42;;;;;;;2.03;0.82;;;;;;;;;;5118548;28;20058;-72
2023/10/31 00:48:08;;;;;;;3.88;1.17;;;;;;;;;;5118331;28;20042;-72
2023/10/31 00:50:34;;;;;;;1.75;0.80;;;;;;;;;;5118162;28;20020;-72
2023/10/31 00:53:00;;;;;;;2.60;0.90;;;;;;;;;;5118445;28;20028;-72
2023/10/31 00:55:26;;;;;;;1.25;0.85;;;;;;;;;;5118028;28;20019;-72
2023/10/31 00:57:52;;;;;;;2.05;0.90;;;;;;;;;;5116817;28;20028;-72
2023/10/31 01:00:18;;;;;;;1.02;0.90;;;;;;;;;;5116941;28;20030;-72
2023/10/31 01:02:44;;;;;;;2.10;0.93;;;;;;;;;;5118192;28;20036;-72
2023/10/31 01:05:11;;;;;;;1.58;0.88;;;;;;;;;;5116922;28;20020;-72
2023/10/31 01:07:37;;;;;;;2.10;1.00;;;;;;;;;;5118322;28;20028;-72
2023/10/31 01:10:03;;;;;;;1.45;0.90;;;;;;;;;;5117979;28;20028;-72
2023/10/31 01:12:30;;;;;;;2.08;0.82;;;;;;;;;;5118004;28;20026;-72
2023/10/31 01:14:56;;;;;;;1.27;1.00;;;;;;;;;;5116738;28;20060;-72
2023/10/31 01:17:22;;;;;;;1.77;1.00;;;;;;;;;;5117760;28;20502;-73
2023/10/31 01:19:49;;;;;;;1.42;0.95;;;;;;;;;;5118006;28;20080;-73
2023/10/31 01:22:15;;;;;;;2.35;1.02;;;;;;;;;;5117872;28;20369;-73
2023/10/31 01:24:41;;;;;;;2.22;1.00;;;;;;;;;;5117795;28;20457;-73
2023/10/31 01:27:07;;;;;;;1.40;0.90;;;;;;;;;;5117628;28;20055;-73
2023/10/31 01:29:33;;;;;;;2.72;0.90;;;;;;;;;;5117905;28;20019;-73
2023/10/31 01:31:59;;;;;;;1.48;0.80;;;;;;;;;;5117522;28;20107;-73
2023/10/31 01:34:25;;;;;;;1.40;0.80;;;;;;;;;;5117194;28;20079;-73
2023/10/31 01:36:51;;;;;;;2.88;1.15;;;;;;;;;;5116307;28;20400;-73
2023/10/31 01:39:17;;;;;;;1.77;1.05;;;;;;;;;;5117586;28;20369;-73
2023/10/31 01:41:43;;;;;;;1.70;0.80;;;;;;;;;;5117347;28;20027;-73
2023/10/31 01:44:09;;;;;;;2.65;0.88;;;;;;;;;;5117695;28;20023;-73
2023/10/31 01:46:35;;;;;;;2.80;0.93;;;;;;;;;;5117614;28;20060;-73
2023/10/31 01:49:01;;;;;;;1.98;1.00;;;;;;;;;;5117583;28;20024;-73
2023/10/31 01:51:28;;;;;;;1.95;1.13;;;;;;;;;;5126971;28;20088;-73
2023/10/31 01:53:54;;;;;;;1.73;0.90;;;;;;;;;;5117545;28;20499;-73
2023/10/31 01:56:21;;;;;;;2.28;1.10;;;;;;;;;;5117401;28;20099;-73
2023/10/31 01:58:48;;;;;;;1.58;0.98;;;;;;;;;;5099171;28;20503;-73
2023/10/31 02:01:14;;;;;;;1.48;0.85;;;;;;;;;;5117449;28;20133;-73
2023/10/31 02:03:40;;;;;;;1.10;0.80;;;;;;;;;;5117689;28;20027;-73
2023/10/31 02:06:06;;;;;;;1.17;0.70;;;;;;;;;;5117361;28;20020;-74
2023/10/31 02:08:33;;;;;;;1.55;1.00;;;;;;;;;;5099188;28;20038;-73
2023/10/31 02:10:58;;;;;;;2.53;0.85;;;;;;;;;;5116938;28;20102;-74
2023/10/31 02:13:25;;;;;;;2.13;1.08;;;;;;;;;;5099124;28;20051;-73
2023/10/31 02:15:51;;;;;;;1.35;1.00;;;;;;;;;;5117367;28;20027;-73
2023/10/31 02:18:17;;;;;;;3.28;0.90;;;;;;;;;;5117385;28;20026;-73
2023/10/31 02:20:43;;;;;;;3.38;1.15;;;;;;;;;;5098944;28;20087;-74
2023/10/31 02:23:09;;;;;;;1.23;0.80;;;;;;;;;;5117639;28;20024;-74
2023/10/31 02:25:35;;;;;;;2.17;1.10;;;;;;;;;;5116806;28;20479;-74
2023/10/31 02:28:01;;;;;;;2.42;1.25;;;;;;;;;;5117622;28;20110;-73
2023/10/31 02:30:28;;;;;;;2.60;1.10;;;;;;;;;;5117169;28;20499;-73
2023/10/31 02:32:54;;;;;;;2.15;1.00;;;;;;;;;;5117328;28;20096;-73
2023/10/31 02:35:20;;;;;;;1.83;0.90;;;;;;;;;;5098836;28;20020;-73
2023/10/31 02:37:47;;;;;;;3.03;1.50;;;;;;;;;;5117356;28;20038;-72
2023/10/31 02:40:13;;;;;;;2.92;1.20;;;;;;;;;;5098364;28;20024;-73
2023/10/31 02:42:39;;;;;;;3.88;1.23;;;;;;;;;;5117085;28;20051;-73
2023/10/31 02:45:05;;;;;;;1.63;0.93;;;;;;;;;;5119156;28;20514;-73
2023/10/31 02:47:31;;;;;;;1.92;1.08;;;;;;;;;;5102520;28;20435;-73
2023/10/31 02:49:57;;;;;;;2.47;1.08;;;;;;;;;;5121053;27;20024;-73
2023/10/31 02:52:23;;;;;;;1.92;0.80;;;;;;;;;;5111527;28;20028;-73
2023/10/31 02:54:49;;;;;;;1.42;1.02;;;;;;;;;;5120341;28;20376;-73
2023/10/31 02:57:16;;;;;;;2.20;0.90;;;;;;;;;;5102374;28;20391;-73
2023/10/31 02:59:42;;;;;;;2.35;0.85;;;;;;;;;;5102196;28;20090;-73
2023/10/31 03:02:08;;;;;;;1.80;0.80;;;;;;;;;;5102192;28;20074;-73
2023/10/31 03:04:34;;;;;;;5.78;1.20;;;;;;;;;;5120403;28;20019;-74
2023/10/31 03:07:00;;;;;;;2.63;0.90;;;;;;;;;;5102106;28;20380;-74
2023/10/31 03:09:26;;;;;;;1.70;0.90;;;;;;;;;;5120167;28;20030;-74
2023/10/31 03:11:53;;;;;;;3.75;1.02;;;;;;;;;;5120441;28;20042;-73
2023/10/31 03:14:19;;;;;;;3.45;1.08;;;;;;;;;;5101912;28;20027;-73
2023/10/31 03:16:45;;;;;;;1.70;0.90;;;;;;;;;;5120283;28;20038;-74
2023/10/31 03:19:11;;;;;;;2.95;0.93;;;;;;;;;;5120179;28;20081;-73
2023/10/31 03:21:37;;;;;;;1.85;0.88;;;;;;;;;;5120142;28;20088;-73
2023/10/31 03:24:04;;;;;;;2.20;0.82;;;;;;;;;;5101489;28;20023;-72
2023/10/31 03:26:30;;;;;;;1.00;0.63;;;;;;;;;;5120100;28;20112;-72
2023/10/31 03:28:57;;;;;;;1.02;0.68;;;;;;;;;;5119903;28;20023;-73
2023/10/31 03:31:23;;;;;;;1.27;0.60;;;;;;;;;;5120078;28;20081;-73
2023/10/31 03:33:49;;;;;;;1.25;0.80;;;;;;;;;;5119980;28;20034;-72
2023/10/31 03:36:15;;;;;;;2.15;0.75;;;;;;;;;;5104127;28;20099;-72
2023/10/31 03:38:41;;;;;;;1.70;1.00;;;;;;;;;;5118915;28;20539;-73
2023/10/31 03:41:07;;;;;;;3.80;0.77;;;;;;;;;;5119090;28;20024;-72
2023/10/31 03:43:33;;;;;;;3.05;0.70;;;;;;;;;;5119569;28;20024;-72
2023/10/31 03:45:59;;;;;;;1.98;0.60;;;;;;;;;;5119981;28;20019;-72
2023/10/31 03:48:25;;;;;;;2.28;1.02;;;;;;;;;;5119569;28;20023;-73
2023/10/31 03:50:51;;;;;;;2.35;0.73;;;;;;;;;;5108985;27;20388;-73
2023/10/31 03:53:17;;;;;;;1.83;0.80;;;;;;;;;;5120911;27;20391;-73
2023/10/31 03:55:43;;;;;;;1.67;0.80;;;;;;;;;;5118363;28;20027;-72
2023/10/31 03:58:09;;;;;;;2.58;1.00;;;;;;;;;;5100740;28;20028;-73
2023/10/31 04:00:35;;;;;;;1.63;0.80;;;;;;;;;;5119137;28;20042;-73
2023/10/31 04:03:01;;;;;;;1.38;0.63;;;;;;;;;;5119151;28;20591;-73
2023/10/31 04:05:27;;;;;;;2.00;0.63;;;;;;;;;;5119564;28;20027;-73
2023/10/31 04:07:54;;;;;;;1.35;0.80;;;;;;;;;;5119385;28;20016;-73
2023/10/31 04:10:20;;;;;;;1.05;0.55;;;;;;;;;;5100635;28;20024;-73
2023/10/31 04:12:46;;;;;;;2.63;1.00;;;;;;;;;;5100732;28;20030;-73
2023/10/31 04:15:12;;;;;;;1.65;0.90;;;;;;;;;;5119292;28;20040;-73
2023/10/31 04:17:38;;;;;;;1.67;0.80;;;;;;;;;;5119056;28;20438;-73
2023/10/31 04:20:04;;;;;;;1.38;0.75;;;;;;;;;;5119058;28;20110;-72
2023/10/31 04:22:30;;;;;;;3.20;0.73;;;;;;;;;;5100858;28;20030;-73
2023/10/31 04:24:56;;;;;;;1.83;0.60;;;;;;;;;;5118831;28;20020;-72
2023/10/31 04:27:22;;;;;;;1.35;0.50;;;;;;;;;;5118821;28;20024;-72
2023/10/31 04:29:49;;;;;;;2.25;0.70;;;;;;;;;;5118998;28;20168;-72
2023/10/31 04:32:15;;;;;;;0.65;0.43;;;;;;;;;;5100412;28;20031;-72
2023/10/31 04:34:41;;;;;;;1.17;0.60;;;;;;;;;;5100484;28;20036;-72
2023/10/31 04:37:07;;;;;;;1.15;0.55;;;;;;;;;;5100330;28;20024;-72
2023/10/31 04:39:33;;;;;;;1.35;0.60;;;;;;;;;;5118506;28;20051;-72
2023/10/31 04:41:59;;;;;;;2.47;0.55;;;;;;;;;;5100030;28;20024;-72
2023/10/31 04:44:25;;;;;;;1.80;0.50;;;;;;;;;;5118699;28;20030;-73
2023/10/31 04:46:51;;;;;;;2.83;0.70;;;;;;;;;;5100171;28;20031;-73
2023/10/31 04:49:17;;;;;;;2.10;0.80;;;;;;;;;;5118453;28;20098;-73
2023/10/31 04:51:43;;;;;;;1.75;0.60;;;;;;;;;;5127648;27;20522;-73
2023/10/31 04:54:09;;;;;;;1.08;0.47;;;;;;;;;;5118348;28;20024;-73
2023/10/31 04:56:36;;;;;;;0.88;0.38;;;;;;;;;;5100146;28;20031;-72
2023/10/31 04:59:02;;;;;;;2.90;0.40;;;;;;;;;;5118273;28;20028;-73
2023/10/31 05:01:28;;;;;;;1.80;0.50;;;;;;;;;;5118069;28;20503;-72
2023/10/31 05:03:54;;;;;;;1.15;0.40;;;;;;;;;;5100013;28;20092;-73
2023/10/31 05:06:21;;;;;;;1.23;0.40;;;;;;;;;;5118125;28;20392;-72
2023/10/31 05:08:47;;;;;;;2.00;0.40;;;;;;;;;;5117780;28;20480;-72
2023/10/31 05:11:13;;;;;;;4.05;0.60;;;;;;;;;;5118244;28;20098;-73
2023/10/31 05:13:39;;;;;;;1.90;0.60;;;;;;;;;;5099671;28;20062;-73
2023/10/31 05:16:06;;;;;;;0.93;0.50;;;;;;;;;;5117009;28;20032;-73
2023/10/31 05:18:31;;;;;;;1.23;0.40;;;;;;;;;;5116801;28;20510;-73
2023/10/31 05:20:58;;;;;;;0.95;0.40;;;;;;;;;;5117983;28;20012;-73
2023/10/31 05:23:23;;;;;;;0.98;0.40;;;;;;;;;;5118036;28;20071;-73
2023/10/31 05:25:50;;;;;;;0.82;0.38;;;;;;;;;;5117450;28;20026;-72
2023/10/31 05:28:16;;;;;;;1.23;0.45;;;;;;;;;;5116652;28;20169;-73
2023/10/31 05:30:42;;;;;;;1.70;0.40;;;;;;;;;;5117915;28;20036;-73
2023/10/31 05:33:09;;;;;;;0.57;0.30;;;;;;;;;;5116571;28;20111;-72
2023/10/31 05:35:35;;;;;;;1.85;0.55;;;;;;;;;;5117795;28;20023;-72
2023/10/31 05:38:01;;;;;;;1.65;0.50;;;;;;;;;;5117726;28;20034;-72
2023/10/31 05:40:29;;;;;;;1.70;0.40;;;;;;;;;;5117544;28;20032;-73
2023/10/31 05:42:55;;;;;;;2.80;0.50;;;;;;;;;;5116672;28;20027;-73
2023/10/31 05:45:21;;;;;;;1.27;0.40;;;;;;;;;;5117074;28;20468;-72
2023/10/31 05:47:47;;;;;;;3.05;0.57;;;;;;;;;;5117736;28;20044;-73
2023/10/31 05:50:13;;;;;;;1.58;0.40;;;;;;;;;;5119958;28;20042;-73
2023/10/31 05:52:39;;;;;;;1.45;0.50;;;;;;;;;;5124697;28;20075;-73
2023/10/31 05:55:05;;;;;;;1.80;0.47;;;;;;;;;;5117400;28;20479;-72
2023/10/31 05:57:31;;;;;;;1.92;0.80;;;;;;;;;;5099283;28;20502;-72
2023/10/31 05:59:57;;;;;;;3.05;0.60;;;;;;;;;;5117646;28;20023;-73
2023/10/31 06:02:23;;;;;;;1.45;0.50;;;;;;;;;;5117602;28;20087;-73
2023/10/31 06:04:49;;;;;;;2.08;0.50;;;;;;;;;;5117674;28;20547;-73
2023/10/31 06:07:16;;;;;;;2.22;0.57;;;;;;;;;;5117341;28;20120;-72
2023/10/31 06:09:42;;;;;;;3.28;0.60;;;;;;;;;;5116583;28;20028;-72
2023/10/31 06:12:08;;;;;;;1.20;0.57;;;;;;;;;;5099035;28;20019;-73
2023/10/31 06:14:35;;;;;;;1.65;0.47;;;;;;;;;;5117701;28;20511;-73
2023/10/31 06:17:01;;;;;;;1.02;0.30;;;;;;;;;;5117426;28;20020;-72
2023/10/31 06:19:27;;;;;;;1.95;0.63;;;;;;;;;;5118959;28;20039;-73
2023/10/31 06:21:53;;;;;;;2.00;0.43;;;;;;;;;;5121348;28;20464;-73
2023/10/31 06:24:19;;;;;;;1.85;0.57;;;;;;;;;;5121331;28;20073;-73
2023/10/31 06:26:45;;;;;;;1.02;0.50;;;;;;;;;;5121272;28;20361;-72
2023/10/31 06:29:11;;;;;;;0.90;0.35;;;;;;;;;;5121374;28;20031;-73
2023/10/31 06:31:37;;;;;;;1.30;0.30;;;;;;;;;;5121162;28;20020;-73
2023/10/31 06:34:03;;;;;;;1.58;0.43;;;;;;;;;;5121235;28;20023;-73
2023/10/31 06:36:29;;;;;;;1.38;0.50;;;;;;;;;;5121072;28;20072;-73
2023/10/31 06:38:56;;;;;;;2.20;0.55;;;;;;;;;;5120848;28;20493;-73
2023/10/31 06:41:22;;;;;;;1.48;0.63;;;;;;;;;;5120722;28;20122;-73
2023/10/31 06:43:48;;;;;;;1.42;0.63;;;;;;;;;;5120628;28;20065;-73
2023/10/31 06:46:15;;;;;;;1.65;0.70;;;;;;;;;;5120410;28;20043;-73
2023/10/31 06:48:41;;;;;;;2.35;0.65;;;;;;;;;;5121042;28;20590;-73
2023/10/31 06:51:07;;;;;;;1.80;0.70;;;;;;;;;;5130270;27;20065;-73
2023/10/31 06:53:33;;;;;;;1.20;0.50;;;;;;;;;;5119695;28;20403;-73
2023/10/31 06:55:59;;;;;;;1.15;0.70;;;;;;;;;;5119902;28;20068;-77
2023/10/31 06:58:24;;;;;;;1.33;0.50;;;;;;;;;;5119509;28;20047;-74
2023/10/31 07:00:51;;;;;;;4.10;0.90;;;;;;;;;;5119028;28;20031;-74
2023/10/31 07:03:17;;;;;;;2.45;0.70;;;;;;;;;;5119532;28;20024;-74
2023/10/31 07:05:43;;;;;;;1.60;0.60;;;;;;;;;;5101839;28;20399;-74
2023/10/31 07:08:09;;;;;;;2.78;0.65;;;;;;;;;;5120179;28;20039;-74
2023/10/31 07:10:35;;;;;;;2.97;0.70;;;;;;;;;;5116919;28;20085;-74
2023/10/31 07:13:01;;;;;;;4.15;0.90;;;;;;;;;;5103210;28;20053;-73
2023/10/31 07:15:27;;;;;;;2.17;0.75;;;;;;;;;;5119584;28;20019;-74
2023/10/31 07:17:53;;;;;;;2.25;0.50;;;;;;;;;;5119757;28;20079;-74
2023/10/31 07:20:20;;;;;;;1.60;0.43;;;;;;;;;;5119658;28;20024;-74
2023/10/31 07:22:46;;;;;;;2.45;0.90;;;;;;;;;;5119539;28;20020;-74
2023/10/31 07:25:12;;;;;;;2.10;0.65;;;;;;;;;;5119239;28;20019;-74
2023/10/31 07:27:38;;;;;;;1.45;0.60;;;;;;;;;;5119534;28;20020;-74
2023/10/31 07:30:05;;;;;;;1.02;0.50;;;;;;;;;;5119111;28;20031;-73
2023/10/31 07:32:31;;;;;;;1.88;0.73;;;;;;;;;;5117042;28;20028;-73
2023/10/31 07:34:57;;;;;;;3.15;0.70;;;;;;;;;;5119247;28;20055;-73
2023/10/31 07:37:23;;;;;;;3.53;0.93;;;;;;;;;;5101279;28;20028;-75
2023/10/31 07:39:50;;;;;;;3.33;0.85;;;;;;;;;;5117957;28;20549;-73
2023/10/31 07:42:16;;;;;;;0.75;0.43;;;;;;;;;;5100038;28;20456;-75
2023/10/31 07:44:42;;;;;;;2.85;0.80;;;;;;;;;;5117875;28;20036;-74
2023/10/31 07:47:08;;;;;;;3.42;0.85;;;;;;;;;;5119109;28;20024;-74
2023/10/31 07:49:34;;;;;;;1.85;0.65;;;;;;;;;;5119266;28;20019;-74
2023/10/31 07:52:03;;;;;;;1.67;0.60;;;;;;;;;;5110888;28;20028;-73
2023/10/31 07:54:30;;;;;;;2.50;0.75;;;;;;;;;;5100050;28;20027;-74
2023/10/31 07:56:56;;;;;;;2.25;0.70;;;;;;;;;;5105682;28;20507;-74
2023/10/31 07:59:22;;;;;;;2.85;0.88;;;;;;;;;;5119423;28;20055;-74
2023/10/31 08:01:48;;;;;;;3.15;0.98;;;;;;;;;;5119425;28;20055;-74
2023/10/31 08:04:16;;;;;;;2.50;0.90;;;;;;;;;;5119275;28;20032;-74
2023/10/31 08:06:42;;;;;;;5.03;1.13;;;;;;;;;;5118045;28;20024;-74
2023/10/31 08:09:08;;;;;;;2.17;0.80;;;;;;;;;;5118955;28;20035;-74
2023/10/31 08:11:35;;;;;;;4.20;1.00;;;;;;;;;;5119086;28;20055;-73
2023/10/31 08:14:01;;;;;;;3.70;0.82;;;;;;;;;;5119133;27;20027;-73
2023/10/31 08:16:28;;;;;;;3.78;0.98;;;;;;;;;;5115902;28;20039;-73
2023/10/31 08:18:54;;;;;;;2.75;0.70;;;;;;;;;;5118763;28;20031;-73
2023/10/31 08:21:20;;;;;;;5.35;1.10;;;;;;;;;;5119292;28;20387;-73
2023/10/31 08:23:46;;;;;;;4.85;1.02;;;;;;;;;;5117408;28;20392;-73
2023/10/31 08:26:12;;;;;;;4.78;0.95;;;;;;;;;;5119710;27;20028;-73
2023/10/31 08:28:38;;;;;;;4.30;1.10;;;;;;;;;;5123213;27;20066;-74
2023/10/31 08:31:04;;;;;;;3.28;1.00;;;;;;;;;;5123735;27;20491;-74
2023/10/31 08:33:30;;;;;;;4.55;1.10;;;;;;;;;;5118703;28;20027;-74
2023/10/31 08:35:56;;;;;;;5.05;0.80;;;;;;;;;;5118785;27;20047;-74
2023/10/31 08:38:22;;;;;;;4.53;0.90;;;;;;;;;;5118400;28;20083;-74
2023/10/31 08:40:49;;;;;;;4.55;0.90;;;;;;;;;;5118062;28;20392;-74
2023/10/31 08:43:15;;;;;;;4.57;1.13;;;;;;;;;;5117837;28;20027;-74
2023/10/31 08:45:41;;;;;;;4.38;0.88;;;;;;;;;;5118372;28;20023;-74
2023/10/31 08:48:07;;;;;;;5.80;1.40;;;;;;;;;;5118311;28;20015;-75
2023/10/31 08:50:33;;;;;;;4.53;1.40;;;;;;;;;;5123914;27;20016;-74
2023/10/31 08:52:59;;;;;;;5.85;1.70;;;;;;;;;;5122475;27;20467;-74
2023/10/31 08:55:25;;;;;;;3.90;1.10;;;;;;;;;;5118134;28;20568;-75
2023/10/31 08:57:52;;;;;;;4.75;0.90;;;;;;;;;;5117522;28;20024;-75
2023/10/31 09:00:18;;;;;;;3.83;0.98;;;;;;;;;;5115457;28;20387;-75
2023/10/31 09:02:44;;;;;;;3.80;1.13;;;;;;;;;;5118098;28;20079;-74
2023/10/31 09:05:10;;;;;;;4.43;1.00;;;;;;;;;;5118308;28;20491;-74
2023/10/31 09:07:36;;;;;;;2.65;0.85;;;;;;;;;;5118195;28;20024;-74
2023/10/31 09:10:05;;;;;;;5.15;0.90;;;;;;;;;;5117846;28;20019;-73
2023/10/31 09:12:31;;;;;;;5.57;1.00;;;;;;;;;;5099717;28;20028;-73
2023/10/31 09:14:57;;;;;;;4.95;0.85;;;;;;;;;;5099868;28;20023;-73
2023/10/31 09:17:23;;;;;;;5.93;0.82;;;;;;;;;;5118028;28;20038;-73
2023/10/31 09:19:48;;;;;;;4.80;0.95;;;;;;;;;;5118121;28;20024;-73
2023/10/31 09:22:16;;;;;;;5.22;0.90;;;;;;;;;;5117895;28;20099;-73
2023/10/31 09:24:43;;;;;;;4.38;0.80;;;;;;;;;;5117683;28;20016;-73
2023/10/31 09:27:10;;;;;;;5.22;0.95;;;;;;;;;;5117749;28;20020;-73
2023/10/31 09:29:36;;;;;;;3.53;0.82;;;;;;;;;;5099584;28;20435;-73
2023/10/31 09:32:02;;;;;;;2.85;0.90;;;;;;;;;;5099499;28;20035;-73
2023/10/31 09:34:28;;;;;;;5.22;0.95;;;;;;;;;;5099461;28;20027;-73
2023/10/31 09:36:54;;;;;;;4.53;1.00;;;;;;;;;;5117527;28;20031;-72
2023/10/31 09:39:20;;;;;;;4.03;0.90;;;;;;;;;;5126534;27;20023;-78
2023/10/31 09:41:47;;;;;;;4.90;1.00;;;;;;;;;;5096072;28;20031;-76
2023/10/31 09:44:13;;;;;;;4.13;1.00;;;;;;;;;;5120204;28;20028;-77
2023/10/31 09:46:40;;;;;;;4.40;0.90;;;;;;;;;;5120341;28;20031;-77
2023/10/31 09:49:08;;;;;;;4.95;1.02;;;;;;;;;;5117734;28;20028;-76
2023/10/31 09:51:34;;;;;;;5.68;1.17;;;;;;;;;;5127417;28;20115;-76
2023/10/31 09:54:03;;;;;;;4.43;1.00;;;;;;;;;;5099897;28;20023;-74
2023/10/31 09:56:34;;;;;;;7.88;1.10;;;;;;;;;;5121567;28;20096;-77
2023/10/31 09:59:02;;;;;;;3.78;0.90;;;;;;;;;;5121735;28;20023;-77
2023/10/31 10:01:29;;;;;;;6.10;1.10;;;;;;;;;;5121475;28;20127;-75
2023/10/31 10:03:55;;;;;;;7.07;0.80;;;;;;;;;;5103437;28;20111;-75
2023/10/31 10:06:23;;;;;;;4.07;0.90;;;;;;;;;;5121604;28;20043;-76
2023/10/31 10:08:49;;;;;;;5.13;0.95;;;;;;;;;;5121336;28;20020;-76
2023/10/31 10:11:15;;;;;;;5.82;1.00;;;;;;;;;;5121064;28;20024;-76
2023/10/31 10:13:41;;;;;;;3.40;0.77;;;;;;;;;;5111342;28;20030;-81
2023/10/31 10:16:07;;;;;;;4.78;0.88;;;;;;;;;;5120112;28;20510;-79
2023/10/31 10:18:39;;;;;;;2.97;1.02;;;;;;;;;;5111760;27;20019;-78
2023/10/31 10:21:06;;;;;;;4.28;1.20;;;;;;;;;;5117655;27;20027;-80
2023/10/31 10:23:32;;;;;;;4.53;1.00;;;;;;;;;;5128388;27;20439;-79
2023/10/31 10:25:59;;;;;;;3.45;0.75;;;;;;;;;;5102921;28;20023;-77
2023/10/31 10:28:25;;;;;;;4.47;1.10;;;;;;;;;;5121151;28;20031;-77
2023/10/31 10:30:53;;;;;;;5.97;1.30;;;;;;;;;;5121139;28;20034;-77
2023/10/31 10:33:19;;;;;;;4.70;1.70;;;;;;;;;;5121209;28;20026;-77
2023/10/31 10:35:45;;;;;;;5.53;1.35;;;;;;;;;;5131518;27;20031;-83
2023/10/31 10:38:13;;;;;;;3.60;1.15;;;;;;;;;;5102405;28;20468;-83
2023/10/31 10:40:41;;;;;;;6.32;1.00;;;;;;;;;;5120434;28;20110;-82
2023/10/31 10:43:11;;;;;;;5.07;1.00;;;;;;;;;;5102464;28;20016;-82
2023/10/31 10:45:39;;;;;;;4.13;1.20;;;;;;;;;;5102759;28;20028;-82
2023/10/31 10:48:06;;;;;;;3.78;0.88;;;;;;;;;;5120551;28;20020;-79
2023/10/31 10:50:35;;;;;;;4.80;0.88;;;;;;;;;;5125618;27;20547;-78
2023/10/31 10:53:09;;;;;;;5.72;0.98;;;;;;;;;;5121893;27;20020;-79
2023/10/31 10:55:39;;;;;;;4.90;1.10;;;;;;;;;;5120596;27;20035;-78
2023/10/31 10:58:34;;;;;;;7.03;1.08;;;;;;;;;;5119093;28;20024;-78
2023/10/31 11:01:01;;;;;;;4.90;1.27;;;;;;;;;;5107470;28;20039;-78
2023/10/31 11:03:30;;;;;;;4.88;0.98;;;;;;;;;;5119110;28;20502;-78
2023/10/31 11:05:57;;;;;;;4.72;0.90;;;;;;;;;;5119856;28;20368;-77
2023/10/31 11:08:24;;;;;;;5.97;0.98;;;;;;;;;;5118989;28;20024;-78
2023/10/31 11:10:50;;;;;;;7.53;1.15;;;;;;;;;;5120277;28;20051;-79
2023/10/31 11:13:16;;;;;;;3.63;0.88;;;;;;;;;;5107949;28;20028;-81
2023/10/31 11:15:42;;;;;;;4.90;1.10;;;;;;;;;;5113286;28;20028;-78
2023/10/31 11:18:09;;;;;;;2.95;0.90;;;;;;;;;;5097008;28;20027;-78
2023/10/31 11:20:35;;;;;;;4.90;0.90;;;;;;;;;;5114674;28;20031;-78
2023/10/31 11:23:06;;;;;;;9.27;1.30;;;;;;;;;;5120436;28;20023;-78
2023/10/31 11:25:32;;;;;;;7.18;1.13;;;;;;;;;;5121568;27;20544;-79
2023/10/31 11:28:10;;;;;;;3.75;0.90;;;;;;;;;;5120170;28;20030;-80
2023/10/31 11:30:36;;;;;;;4.25;0.70;;;;;;;;;;5118809;28;20101;-79
2023/10/31 11:33:03;;;;;;;3.75;0.82;;;;;;;;;;5119741;28;20106;-77
2023/10/31 11:35:35;;;;;;;5.78;1.33;;;;;;;;;;5103279;28;20070;-79
2023/10/31 11:38:03;;;;;;;5.00;1.30;;;;;;;;;;5119528;27;20031;-81
2023/10/31 11:40:29;;;;;;;6.80;0.93;;;;;;;;;;5101129;28;20034;-80
2023/10/31 11:42:59;;;;;;;5.45;1.10;;;;;;;;;;5119604;28;20384;-81
2023/10/31 11:45:37;;;;;;;6.53;1.02;;;;;;;;;;5105563;28;20028;-82
2023/10/31 11:48:04;;;;;;;2.92;0.90;;;;;;;;;;5115095;28;20030;-80
2023/10/31 11:50:31;;;;;;;4.32;1.45;;;;;;;;;;5105970;27;20073;-76
2023/10/31 11:53:00;;;;;;;4.95;1.40;;;;;;;;;;5124164;27;20080;-77
2023/10/31 11:55:27;;;;;;;4.15;1.30;;;;;;;;;;5100891;28;20122;-78
2023/10/31 11:57:53;;;;;;;6.70;1.30;;;;;;;;;;5101069;28;20472;-75
2023/10/31 12:00:23;;;;;;;4.50;1.20;;;;;;;;;;5101662;28;20024;-80
2023/10/31 12:03:02;;;;;;;4.65;1.20;;;;;;;;;;5119322;28;20090;-76
2023/10/31 12:05:28;;;;;;;5.80;1.30;;;;;;;;;;5119564;28;20020;-78
2023/10/31 12:07:54;;;;;;;4.13;1.50;;;;;;;;;;5102153;28;20030;-79
2023/10/31 12:10:25;;;;;;;7.70;1.80;;;;;;;;;;5100509;28;20114;-80
2023/10/31 12:12:51;;;;;;;5.90;1.27;;;;;;;;;;5103734;28;20027;-78
2023/10/31 12:15:17;;;;;;;7.00;1.25;;;;;;;;;;5114026;28;20414;-76
2023/10/31 12:17:43;;;;;;;5.13;1.13;;;;;;;;;;5116713;28;20024;-79
2023/10/31 12:20:09;;;;;;;4.57;1.00;;;;;;;;;;5118872;28;20473;-79
2023/10/31 12:22:36;;;;;;;5.72;1.42;;;;;;;;;;5119202;28;20028;-79
2023/10/31 12:25:06;;;;;;;4.15;0.85;;;;;;;;;;5101433;27;20476;-80
2023/10/31 12:27:50;;;;;;;4.38;0.90;;;;;;;;;;5100965;28;20031;-79
2023/10/31 12:30:18;;;;;;;5.35;1.20;;;;;;;;;;5118400;28;20019;-79
2023/10/31 12:32:44;;;;;;;5.28;1.08;;;;;;;;;;5099856;28;20023;-79
2023/10/31 12:35:20;;;;;;;8.32;1.17;;;;;;;;;;5100191;28;20027;-79
2023/10/31 12:37:47;;;;;;;3.95;1.08;;;;;;;;;;5118778;28;20035;-86
2023/10/31 12:40:15;;;;;;;4.88;1.02;;;;;;;;;;5118229;28;20083;-76
2023/10/31 12:42:41;;;;;;;4.55;1.15;;;;;;;;;;5099371;28;20039;-79
2023/10/31 12:45:08;;;;;;;5.88;1.60;;;;;;;;;;5115575;28;20070;-79
2023/10/31 12:47:34;;;;;;;6.53;1.00;;;;;;;;;;5096790;28;20111;-80
2023/10/31 12:50:08;;;;;;;3.63;1.02;;;;;;;;;;5100326;27;20028;-78
2023/10/31 12:52:53;;;;;;;3.88;0.80;;;;;;;;;;5126016;27;20035;-77
2023/10/31 12:55:24;;;;;;;4.35;1.02;;;;;;;;;;5118319;28;20028;-77
2023/10/31 12:57:51;;;;;;;5.65;0.90;;;;;;;;;;5118476;28;20066;-78
2023/10/31 13:00:24;;;;;;;4.88;1.13;;;;;;;;;;5099933;28;20023;-81
2023/10/31 13:02:50;;;;;;;5.38;1.20;;;;;;;;;;5099887;28;20055;-81
2023/10/31 13:05:16;;;;;;;4.85;1.15;;;;;;;;;;5099824;28;20555;-82
2023/10/31 13:07:49;;;;;;;4.78;0.82;;;;;;;;;;5118088;28;20019;-81
2023/10/31 13:10:16;;;;;;;5.18;1.20;;;;;;;;;;5117808;28;20364;-81
2023/10/31 13:12:46;;;;;;;6.65;1.17;;;;;;;;;;5117763;28;20098;-80
2023/10/31 13:15:13;;;;;;;7.03;1.20;;;;;;;;;;5118166;28;20053;-77
2023/10/31 13:17:41;;;;;;;8.80;1.10;;;;;;;;;;5117869;28;20031;-76
2023/10/31 13:20:09;;;;;;;4.13;1.05;;;;;;;;;;5117791;28;20024;-80
2023/10/31 13:22:35;;;;;;;3.10;0.60;;;;;;;;;;5116350;28;20028;-79
2023/10/31 13:25:04;;;;;;;5.57;0.90;;;;;;;;;;5118418;28;20479;-78
2023/10/31 13:27:30;;;;;;;5.38;0.85;;;;;;;;;;5086764;28;20065;-80
2023/10/31 13:29:56;;;;;;;4.85;1.00;;;;;;;;;;5099778;28;20030;-77
2023/10/31 13:32:22;;;;;;;2.72;0.70;;;;;;;;;;5117940;28;20031;-75
2023/10/31 13:34:48;;;;;;;7.00;1.20;;;;;;;;;;5099580;28;20027;-75
2023/10/31 13:37:14;;;;;;;4.82;0.90;;;;;;;;;;5117798;28;20098;-75
2023/10/31 13:39:40;;;;;;;6.55;0.98;;;;;;;;;;5099025;28;20023;-76
2023/10/31 13:42:07;;;;;;;5.95;1.17;;;;;;;;;;5099233;28;20159;-76
2023/10/31 13:44:33;;;;;;;4.47;0.88;;;;;;;;;;5117616;28;20023;-75
2023/10/31 13:46:59;;;;;;;5.70;1.00;;;;;;;;;;5117725;28;20011;-76
2023/10/31 13:49:25;;;;;;;4.97;1.10;;;;;;;;;;5117591;28;20024;-75
2023/10/31 13:51:51;;;;;;;4.88;1.30;;;;;;;;;;5126396;28;20053;-76
2023/10/31 13:54:19;;;;;;;4.60;1.05;;;;;;;;;;5117269;28;20030;-75
2023/10/31 13:56:45;;;;;;;6.05;1.00;;;;;;;;;;5117815;28;20012;-75
2023/10/31 13:59:11;;;;;;;9.25;1.15;;;;;;;;;;5099160;28;20472;-75
2023/10/31 14:01:37;;;;;;;8.77;1.02;;;;;;;;;;5117262;28;20485;-75
2023/10/31 14:04:04;;;;;;;4.25;0.90;;;;;;;;;;5117731;28;20051;-75
2023/10/31 14:06:32;;;;;;;5.78;0.68;;;;;;;;;;5117625;28;20876;-77
2023/10/31 14:08:58;;;;;;;7.75;0.95;;;;;;;;;;5117245;28;20024;-76
2023/10/31 14:11:24;;;;;;;5.78;1.00;;;;;;;;;;5117309;28;20129;-75
2023/10/31 14:13:52;;;;;;;6.30;1.00;;;;;;;;;;5111412;28;20541;-76
2023/10/31 14:16:18;;;;;;;7.30;1.08;;;;;;;;;;5129277;28;20022;-77
2023/10/31 14:18:46;;;;;;;4.63;1.25;;;;;;;;;;5115870;28;20110;-76
2023/10/31 14:21:12;;;;;;;5.93;1.20;;;;;;;;;;5117271;28;20100;-77
2023/10/31 14:23:38;;;;;;;4.93;1.02;;;;;;;;;;5117073;28;20019;-80
2023/10/31 14:26:04;;;;;;;4.70;0.80;;;;;;;;;;5117794;28;20016;-84
2023/10/31 14:28:30;;;;;;;8.20;1.00;;;;;;;;;;5117147;28;20030;-80
2023/10/31 14:30:57;;;;;;;3.38;0.93;;;;;;;;;;5116597;28;20075;-79
2023/10/31 14:33:23;;;;;;;8.48;1.17;;;;;;;;;;5111620;28;20453;-77
2023/10/31 14:35:49;;;;;;;6.32;1.10;;;;;;;;;;5115743;28;20034;-81
2023/10/31 14:38:15;;;;;;;8.30;1.10;;;;;;;;;;5116787;28;20031;-82
2023/10/31 14:40:41;;;;;;;6.38;1.10;;;;;;;;;;5118343;28;20023;-80